Latest Weather Observations for Sydney Olympic Park

IDN60801

Issued at 3:04 pm EDT Tuesday 23 December 2014 (issued every 30 minutes, with the page automatically refreshed every 10 minutes)

About weather observations | Map of weather stations | Latest weather observations for NSW | Other Formats
Station Details ID: 066212 Name: SYDNEY OLYMPIC PARK AWS (ARCHERY CENTRE) Lat: -33.83 Lon: 151.07 Height: 4.0 m
Data from the previous 72 hours. | See also: Recent months at Sydney Olympic Park
Date/Time
EDT
Temp
°C
App
Temp
°C
Dew
Point
Rel
Hum
%
Delta-T
°C
Wind Press
QNH
hPa
Press
MSL
hPa
Rain
since 9 am
mm
Dir
 
Spd
km/h
Gust
km/h
Spd
kts
Gust
kts
23/03:00pm 23.9 27.2 21.8 88 1.4 NNW 7 11 4 6 - - 1.0
23/02:53pm 24.1 26.4 21.4 85 1.8 N 11 17 6 9 - - 0.6
23/02:30pm 25.8 27.1 20.1 71 3.7 N 13 20 7 11 - - 0.0
23/02:00pm 26.9 28.3 20.3 67 4.3 N 13 22 7 12 - - 0.0
23/01:30pm 27.5 27.9 19.0 59 5.5 NNE 15 24 8 13 - - 0.0
23/01:00pm 28.2 29.3 19.7 60 5.5 NE 13 26 7 14 - - 0.0
23/12:30pm 27.8 28.9 19.6 61 5.3 NNE 13 22 7 12 - - 0.0
23/12:00pm 27.2 29.1 20.5 67 4.4 N 11 20 6 11 - - 0.0
23/11:30am 25.8 28.0 20.4 72 3.5 NNW 9 17 5 9 - - 0.0
23/11:00am 26.2 28.3 20.1 69 4.0 NNW 9 19 5 10 - - 0.0
23/10:30am 23.9 25.2 19.2 75 3.0 N 11 17 6 9 - - 0.0
23/10:00am 23.4 24.9 18.9 76 2.9 NW 9 15 5 8 - - 0.0
23/09:30am 22.8 24.8 20.0 84 1.8 NNW 9 15 5 8 - - 0.0
23/09:00am 21.8 24.0 19.5 87 1.5 NW 7 11 4 6 - - 0.0
23/08:30am 20.9 22.7 18.8 88 1.3 NW 7 11 4 6 - - 0.0
23/08:00am 21.1 22.8 18.5 85 1.6 N 7 13 4 7 - - 0.0
23/07:30am 21.1 22.6 18.1 83 1.9 N 7 20 4 11 - - 0.0
23/07:00am 21.3 22.9 18.3 83 1.9 NNE 7 15 4 8 - - 0.0
23/06:30am 21.1 22.7 18.3 84 1.7 E 7 13 4 7 - - 0.0
23/06:00am 21.2 22.8 18.2 83 1.9 NE 7 13 4 7 - - 0.0
23/05:30am 21.2 23.0 18.2 83 1.9 NE 6 13 3 7 - - 0.0
23/05:00am 21.1 22.8 18.1 83 1.9 NE 6 9 3 5 - - 0.0
23/04:30am 21.4 23.0 18.2 82 2.0 ENE 7 13 4 7 - - 0.0
23/04:00am 21.5 22.7 18.3 82 2.0 E 9 13 5 7 - - 0.0
23/03:30am 21.5 22.6 18.1 81 2.1 E 9 13 5 7 - - 0.0
23/03:00am 21.7 22.9 18.3 81 2.1 E 9 17 5 9 - - 0.0
23/02:30am 21.8 24.3 18.2 80 2.2 ENE 2 11 1 6 - - 0.0
23/02:00am 21.8 22.9 18.0 79 2.4 NE 9 13 5 7 - - 0.0
23/01:30am 21.7 22.8 18.1 80 2.2 N 9 17 5 9 - - 0.0
23/01:00am 22.1 23.0 18.3 79 2.4 NNE 11 19 6 10 - - 0.0
23/12:30am 22.2 23.1 18.4 79 2.4 NE 11 20 6 11 - - 0.0
23/12:00am 22.3 22.8 18.3 78 2.5 NE 13 20 7 11 - - 0.0
 
Date/Time
EDT
Temp
°C
App
Temp
°C
Dew
Point
Rel
Hum
%
Delta-T
°C
Wind Press
QNH
hPa
Press
MSL
hPa
Rain
since 9 am
mm
Dir
 
Spd
km/h
Gust
km/h
Spd
kts
Gust
kts
22/11:30pm 22.5 23.4 18.3 77 2.6 NE 11 26 6 14 - - 0.0
22/11:00pm 22.7 23.3 18.5 77 2.6 NNE 13 28 7 15 - - 0.0
22/10:30pm 22.7 23.9 18.3 76 2.8 NNE 9 17 5 9 - - 0.0
22/10:00pm 22.8 23.8 18.6 77 2.6 NE 11 20 6 11 - - 0.0
22/09:30pm 22.9 23.9 18.7 77 2.7 ENE 11 17 6 9 - - 0.0
22/09:00pm 23.0 24.3 18.5 76 2.8 NE 9 20 5 11 - - 0.0
22/08:30pm 23.3 23.6 18.8 76 2.8 NNE 15 24 8 13 - - 0.0
22/08:00pm 23.4 23.3 18.7 75 3.0 NE 17 30 9 16 - - 0.0
22/07:30pm 23.5 23.6 19.2 77 2.7 NNE 17 30 9 16 - - 0.0
22/07:00pm 23.6 23.4 19.3 77 2.7 NE 19 30 10 16 - - 0.0
22/06:30pm 24.0 25.2 19.9 78 2.6 E 13 19 7 10 - - 0.0
22/06:00pm 24.4 26.1 20.1 77 2.8 E 11 24 6 13 - - 0.0
22/05:30pm 25.0 26.5 19.8 73 3.4 ENE 11 22 6 12 - - 0.0
22/05:00pm 25.6 26.3 18.0 63 4.8 NNE 11 19 6 10 - - 0.0
22/04:30pm 25.7 25.9 18.6 65 4.5 NNE 15 30 8 16 - - 0.0
22/04:00pm 26.4 27.0 19.5 66 4.5 E 15 30 8 16 - - 0.0
22/03:30pm 26.9 26.5 19.0 62 5.1 E 19 30 10 16 - - 0.0
22/03:00pm 27.5 27.4 19.6 62 5.1 ENE 19 35 10 19 - - 0.0
22/02:30pm 28.1 28.5 20.6 63 4.9 E 19 33 10 18 - - 0.0
22/02:04pm 27.4 26.8 18.9 59 5.5 ENE 20 32 11 17 - - 0.0
22/02:00pm 27.5 26.9 18.8 59 5.6 E 20 33 11 18 - - 0.0
22/01:45pm 27.1 27.5 18.9 61 5.3 ENE 15 32 8 17 - - 0.0
22/01:30pm 27.7 27.6 20.0 63 5.0 E 20 32 11 17 - - 0.0
22/01:00pm 27.6 27.1 19.1 59 5.5 E 20 30 11 16 - - 0.0
22/12:30pm 28.0 27.9 20.0 61 5.2 ESE 20 30 11 16 - - 0.0
22/12:00pm 27.9 29.0 20.5 64 4.9 ESE 15 20 8 11 - - 0.0
22/11:30am 28.5 30.4 19.7 59 5.7 E 9 15 5 8 - - 0.0
22/11:00am 27.7 29.7 18.7 58 5.8 ENE 6 9 3 5 - - 0.0
22/10:30am 26.7 28.5 18.8 62 5.1 E 7 11 4 6 - - 0.0
22/10:00am 26.1 27.6 19.0 65 4.5 N 9 13 5 7 - - 0.0
22/09:30am 25.7 28.7 20.0 71 3.7 W 4 9 2 5 - - 0.0
22/09:00am 25.0 27.9 19.8 73 3.4 NW 4 13 2 7 - - 0.0
22/08:30am 23.7 26.4 19.4 77 2.7 N 4 7 2 4 - - 0.0
22/08:00am 22.0 23.5 18.8 82 2.0 N 9 13 5 7 - - 0.0
22/07:30am 21.0 23.4 18.9 88 1.3 N 4 9 2 5 - - 0.0
22/07:00am 20.3 22.9 19.3 94 0.6 NNW 4 7 2 4 - - 0.0
22/06:30am 19.1 22.3 18.8 98 0.2 CALM 0 0 0 0 - - 0.0
22/06:00am 18.7 21.3 18.4 98 0.2 WNW 2 9 1 5 - - 0.0
22/05:30am 19.1 21.3 18.4 96 0.4 N 4 9 2 5 - - 0.0
22/05:00am 19.3 22.2 18.3 94 0.6 CALM 0 0 0 0 - - 0.0
22/04:30am 20.0 21.9 19.0 94 0.6 E 7 11 4 6 - - 0.0
22/04:00am 19.9 22.4 19.1 95 0.5 E 4 7 2 4 - - 0.0
22/03:30am 20.1 22.3 19.3 95 0.5 ENE 6 11 3 6 - - 0.0
22/03:00am 19.9 22.1 19.1 95 0.5 E 6 9 3 5 - - 0.0
22/02:30am 19.7 22.7 18.5 93 0.7 CALM 0 0 0 0 - - 0.0
22/02:00am 20.6 23.7 18.7 89 1.2 CALM 0 6 0 3 - - 0.0
22/01:30am 21.0 23.2 19.1 89 1.2 E 6 9 3 5 - - 0.0
22/01:00am 21.1 22.6 19.0 88 1.3 ENE 9 15 5 8 - - 0.0
22/12:30am 20.7 23.4 18.6 88 1.3 NNE 2 7 1 4 - - 0.0
22/12:00am 21.2 23.2 18.8 86 1.5 NNE 6 11 3 6 - - 0.0
 
Date/Time
EDT
Temp
°C
App
Temp
°C
Dew
Point
Rel
Hum
%
Delta-T
°C
Wind Press
QNH
hPa
Press
MSL
hPa
Rain
since 9 am
mm
Dir
 
Spd
km/h
Gust
km/h
Spd
kts
Gust
kts
21/11:30pm 21.5 23.4 18.9 85 1.6 NNE 7 11 4 6 - - 0.0
21/11:00pm 21.6 23.4 18.8 84 1.8 NE 7 17 4 9 - - 0.0
21/10:30pm 21.9 23.8 18.9 83 1.9 NE 7 15 4 8 - - 0.0
21/10:00pm 22.0 23.5 18.8 82 2.0 NE 9 13 5 7 - - 0.0
21/09:30pm 22.1 23.9 18.7 81 2.1 NNE 7 11 4 6 - - 0.0
21/09:00pm 22.4 23.1 18.8 80 2.3 NNE 13 22 7 12 - - 0.0
21/08:30pm 22.5 23.1 18.7 79 2.4 ENE 13 24 7 13 - - 0.0
21/08:00pm 22.9 23.5 18.7 77 2.7 NE 13 26 7 14 - - 0.0
21/07:30pm 23.5 23.3 18.6 74 3.1 ENE 17 28 9 15 - - 0.0
21/07:00pm 24.1 23.7 18.1 69 3.8 NE 17 30 9 16 - - 0.0
21/06:30pm 24.7 24.5 18.4 68 4.0 E 17 24 9 13 - - 0.0
21/06:00pm 25.2 25.0 18.4 66 4.3 ENE 17 28 9 15 - - 0.0
21/05:30pm 25.5 25.2 18.2 64 4.6 E 17 28 9 15 - - 0.0
21/05:00pm 26.0 25.5 17.9 61 5.1 ENE 17 30 9 16 - - 0.0
21/04:30pm 26.1 24.9 18.5 63 4.8 E 22 35 12 19 - - 0.0
21/04:00pm 26.0 25.4 18.4 63 4.8 E 19 32 10 17 - - 0.0
21/03:30pm 26.2 25.9 18.3 61 5.0 E 17 28 9 15 - - 0.0
21/03:00pm 26.3 25.5 18.4 61 5.0 E 20 37 11 20 - - 0.0
21/02:30pm 26.8 26.6 18.6 60 5.2 E 17 30 9 16 - - 0.0
21/02:00pm 26.8 27.0 17.6 57 5.8 ENE 13 20 7 11 - - 0.0
21/01:30pm 27.1 28.3 19.9 64 4.7 E 13 20 7 11 - - 0.0
21/01:00pm 27.2 28.2 19.5 62 5.0 E 13 22 7 12 - - 0.0
21/12:30pm 25.9 25.8 17.8 61 5.1 ESE 15 26 8 14 - - 0.0
21/12:00pm 25.7 25.9 16.8 58 5.5 NE 11 17 6 9 - - 0.0
21/11:30am 26.2 27.4 18.3 61 5.0 ENE 9 15 5 8 - - 0.0
21/11:00am 25.3 26.1 17.2 61 5.0 NE 9 15 5 8 - - 0.0
21/10:30am 24.0 24.2 16.8 64 4.4 NNE 11 20 6 11 - - 0.0
21/10:00am 23.5 24.9 17.3 68 3.8 E 6 9 3 5 - - 0.0
21/09:30am 22.6 23.5 16.2 67 3.9 NW 6 9 3 5 - - 0.0
21/09:00am 22.0 22.8 15.8 68 3.7 NW 6 11 3 6 - - 0.0
21/08:30am 21.1 22.2 15.6 71 3.3 WNW 4 7 2 4 - - 0.0
21/08:00am 20.2 21.4 16.0 77 2.5 WNW 4 11 2 6 - - 0.0
21/07:30am 18.7 19.8 16.5 87 1.3 NNW 6 9 3 5 - - 0.0
21/07:00am 17.2 18.1 16.2 94 0.6 NW 6 9 3 5 - - 0.0
21/06:30am 16.1 18.0 15.8 98 0.2 CALM 0 0 0 0 - - 0.0
21/06:00am 15.2 16.8 14.9 98 0.2 CALM 0 0 0 0 - - 0.0
21/05:30am 14.8 16.2 14.5 98 0.2 CALM 0 0 0 0 - - 0.0
21/05:00am 15.1 16.7 14.8 98 0.2 CALM 0 0 0 0 - - 0.0
21/04:30am 15.1 16.7 14.8 98 0.2 CALM 0 0 0 0 - - 0.0
21/04:00am 15.2 16.8 14.9 98 0.2 CALM 0 0 0 0 - - 0.0
21/03:30am 15.5 17.2 15.2 98 0.2 CALM 0 0 0 0 - - 0.0
21/03:00am 15.7 17.4 15.2 97 0.3 CALM 0 0 0 0 - - 0.0
21/02:30am 15.8 17.5 15.2 96 0.3 CALM 0 0 0 0 - - 0.0
21/02:00am 16.0 17.7 15.2 95 0.5 CALM 0 0 0 0 - - 0.0
21/01:30am 16.3 18.0 15.3 94 0.6 CALM 0 0 0 0 - - 0.0
21/01:00am 16.5 18.2 15.2 92 0.8 CALM 0 0 0 0 - - 0.0
21/12:30am 16.6 18.3 15.1 91 0.9 CALM 0 0 0 0 - - 0.0
21/12:00am 17.2 18.9 15.2 88 1.2 CALM 0 0 0 0 - - 0.0
 
Date/Time
EDT
Temp
°C
App
Temp
°C
Dew
Point
Rel
Hum
%
Delta-T
°C
Wind Press
QNH
hPa
Press
MSL
hPa
Rain
since 9 am
mm
Dir
 
Spd
km/h
Gust
km/h
Spd
kts
Gust
kts
20/11:30pm 17.7 19.4 15.3 86 1.4 CALM 0 0 0 0 - - 0.0
20/11:00pm 18.5 20.1 15.0 80 2.0 CALM 0 6 0 3 - - 0.0
20/10:30pm 19.2 19.7 14.9 76 2.5 N 6 13 3 7 - - 0.0
20/10:00pm 19.5 20.1 14.3 72 3.0 E 4 9 2 5 - - 0.0
20/09:30pm 20.0 20.1 14.4 70 3.3 ENE 7 11 4 6 - - 0.0
20/09:00pm 20.2 19.5 14.3 69 3.4 ENE 11 15 6 8 - - 0.0
20/08:30pm 20.4 19.6 14.1 67 3.6 ENE 11 17 6 9 - - 0.0
20/08:00pm 20.7 19.5 13.9 65 3.9 ENE 13 24 7 13 - - 0.0
20/07:30pm 21.2 19.9 13.6 62 4.4 ENE 13 19 7 10 - - 0.0
20/07:00pm 21.8 20.4 13.4 59 4.8 E 13 22 7 12 - - 0.0
20/06:30pm 21.9 20.1 13.3 58 4.9 E 15 24 8 13 - - 0.0
20/06:00pm 22.1 19.9 13.2 57 5.1 E 17 24 9 13 - - 0.0
20/05:30pm 22.7 21.0 13.5 56 5.3 E 15 26 8 14 - - 0.0
20/05:00pm 22.7 20.3 13.7 56 5.2 E 19 28 10 15 - - 0.0
20/04:30pm 22.9 20.3 13.7 56 5.3 E 20 30 11 16 - - 0.0
20/04:00pm 22.9 20.2 13.4 55 5.5 E 20 28 11 15 - - 0.0
20/03:30pm 23.4 20.8 14.9 59 5.1 ESE 22 30 12 16 - - 0.0

Other Formats:

Comma delimited format used in spreadsheet applications
http://www.bom.gov.au/fwo/IDN60801/IDN60801.95765.axf

JavaScript Object Notation format (JSON) in row-major order
http://www.bom.gov.au/fwo/IDN60801/IDN60801.95765.json